Time;durP1;ratioP1;P1;durP2;ratioP2;P2;SDS_P1;SDS_P2;PMS_P1;PMS_P2;Temp;Humidity;BMP_temperature;BMP_pressure;BME280_temperature;BME280_humidity;BME280_pressure;Samples;Min_cycle;Max_cycle;Signal;HPM_P1;HPM_P2
2024/04/10 00:01:49;;;;;;;23.08;20.15;;;8.60;99.90;;;;;;5312444;26;20005;-74
2024/04/10 00:04:17;;;;;;;21.58;19.75;;;8.60;99.90;;;;;;5327308;26;19996;-73
2024/04/10 00:06:44;;;;;;;22.13;20.20;;;8.50;99.90;;;;;;5317419;26;19996;-74
2024/04/10 00:09:11;;;;;;;21.48;19.70;;;8.50;99.90;;;;;;5284780;26;20008;-74
2024/04/10 00:11:38;;;;;;;21.60;19.73;;;8.40;99.90;;;;;;5294316;26;20014;-73
2024/04/10 00:14:05;;;;;;;21.85;19.75;;;8.30;99.90;;;;;;5298492;26;20021;-71
2024/04/10 00:16:33;;;;;;;21.85;20.02;;;8.30;99.90;;;;;;5284659;26;19997;-72
2024/04/10 00:19:04;;;;;;;21.48;19.42;;;8.20;99.90;;;;;;5280484;26;20002;-73
2024/04/10 00:21:33;;;;;;;22.35;20.17;;;8.20;99.90;;;;;;5303506;26;20001;-74
2024/04/10 00:24:01;;;;;;;20.70;19.02;;;8.20;99.90;;;;;;5297196;26;20002;-73
2024/04/10 00:26:28;;;;;;;22.95;20.42;;;8.20;99.90;;;;;;5298344;26;20984;-73
2024/04/10 00:28:59;;;;;;;21.33;19.65;;;8.20;99.90;;;;;;5304546;26;20022;-75
2024/04/10 00:31:27;;;;;;;21.65;19.70;;;8.20;99.90;;;;;;5276716;26;20860;-73
2024/04/10 00:33:54;;;;;;;21.15;19.27;;;8.20;99.90;;;;;;5298501;26;20749;-75
2024/04/10 00:36:22;;;;;;;22.80;20.73;;;8.20;99.90;;;;;;5324991;26;20018;-75
2024/04/10 00:38:49;;;;;;;20.55;18.63;;;8.20;99.90;;;;;;5338921;26;20008;-73
2024/04/10 00:41:16;;;;;;;22.17;20.00;;;8.20;99.90;;;;;;5344023;26;20448;-72
2024/04/10 00:43:44;;;;;;;25.35;20.70;;;8.20;99.90;;;;;;5349021;26;20499;-72
2024/04/10 00:46:24;;;;;;;21.77;19.65;;;8.20;99.90;;;;;;5333785;26;20055;-70
2024/04/10 00:48:51;;;;;;;21.13;19.30;;;8.20;99.90;;;;;;5378492;26;20044;-73
2024/04/10 00:51:21;;;;;;;21.98;19.83;;;8.10;99.90;;;;;;5314448;26;20032;-74
2024/04/10 00:53:49;;;;;;;24.77;20.25;;;8.10;99.90;;;;;;5344817;26;20007;-73
2024/04/10 00:56:17;;;;;;;21.17;19.00;;;8.10;99.90;;;;;;5342628;26;20020;-73
2024/04/10 00:58:49;;;;;;;23.88;19.85;;;8.20;99.90;;;;;;5310167;26;20774;-74
2024/04/10 01:01:16;;;;;;;22.65;20.27;;;8.20;99.90;;;;;;5345786;26;20016;-73
2024/04/10 01:03:44;;;;;;;22.05;20.08;;;8.10;99.90;;;;;;5342258;26;20029;-74
2024/04/10 01:06:12;;;;;;;21.48;19.27;;;8.00;99.90;;;;;;5341544;26;20006;-74
2024/04/10 01:08:39;;;;;;;21.63;19.33;;;8.00;99.90;;;;;;5340563;26;20004;-73
2024/04/10 01:11:07;;;;;;;23.40;20.00;;;8.00;99.90;;;;;;5340275;26;20012;-73
2024/04/10 01:13:35;;;;;;;21.80;19.52;;;8.00;99.90;;;;;;5318542;26;20000;-74
2024/04/10 01:16:04;;;;;;;23.42;19.65;;;8.00;99.90;;;;;;5347367;26;20027;-73
2024/04/10 01:18:31;;;;;;;22.20;19.70;;;8.00;99.90;;;;;;5347159;26;20012;-74
2024/04/10 01:20:58;;;;;;;23.13;19.42;;;8.00;99.90;;;;;;5338284;26;20024;-74
2024/04/10 01:23:26;;;;;;;21.30;19.50;;;8.00;99.90;;;;;;5344409;26;20004;-73
2024/04/10 01:26:03;;;;;;;21.15;19.00;;;8.00;99.90;;;;;;5344751;26;20059;-73
2024/04/10 01:28:30;;;;;;;21.63;19.67;;;8.00;99.90;;;;;;5347380;26;20012;-77
2024/04/10 01:30:57;;;;;;;21.42;19.05;;;8.00;99.90;;;;;;5353919;26;20008;-75
2024/04/10 01:33:24;;;;;;;22.45;20.08;;;7.90;99.90;;;;;;5329403;26;20005;-75
2024/04/10 01:35:51;;;;;;;28.95;19.25;;;7.90;99.90;;;;;;5365816;26;20120;-72
2024/04/10 01:38:18;;;;;;;22.13;19.38;;;7.90;99.90;;;;;;5370973;26;19996;-70
2024/04/10 01:40:45;;;;;;;20.70;18.67;;;7.80;99.90;;;;;;5355868;26;20581;-75
2024/04/10 01:43:13;;;;;;;22.23;19.65;;;7.90;99.90;;;;;;5341483;26;20098;-73
2024/04/10 01:45:40;;;;;;;21.67;18.90;;;7.90;99.90;;;;;;5342826;26;20010;-73
2024/04/10 01:48:09;;;;;;;28.80;19.15;;;7.80;99.90;;;;;;5350529;26;19996;-75
2024/04/10 01:50:37;;;;;;;25.20;18.40;;;7.80;99.90;;;;;;5308111;26;20004;-74
2024/04/10 01:53:05;;;;;;;27.35;18.20;;;7.80;99.90;;;;;;5344499;26;20001;-73
2024/04/10 01:55:32;;;;;;;21.75;19.42;;;7.70;99.90;;;;;;5345763;26;20011;-73
2024/04/10 01:58:01;;;;;;;24.35;19.02;;;7.80;99.90;;;;;;5339702;26;20665;-74
2024/04/10 02:00:28;;;;;;;20.65;18.48;;;7.80;99.90;;;;;;5342207;26;20018;-75
2024/04/10 02:02:55;;;;;;;26.50;18.95;;;7.80;99.90;;;;;;5313811;26;20009;-74
2024/04/10 02:05:22;;;;;;;20.65;18.65;;;7.80;99.90;;;;;;5340907;26;20031;-73
2024/04/10 02:07:49;;;;;;;23.13;18.52;;;7.80;99.90;;;;;;5360853;26;20000;-73
2024/04/10 02:10:16;;;;;;;20.67;18.65;;;7.80;99.90;;;;;;5343875;26;20032;-74
2024/04/10 02:12:43;;;;;;;26.20;19.15;;;7.80;99.90;;;;;;5343506;26;20058;-72
2024/04/10 02:15:10;;;;;;;22.33;18.88;;;7.80;99.90;;;;;;5343284;26;20012;-73
2024/04/10 02:17:38;;;;;;;25.42;19.52;;;7.80;99.90;;;;;;5348480;26;20024;-74
2024/04/10 02:20:07;;;;;;;21.65;19.27;;;7.80;99.90;;;;;;5335285;26;21853;-75
2024/04/10 02:22:34;;;;;;;23.48;18.85;;;7.80;99.90;;;;;;5344574;26;20036;-73
2024/04/10 02:25:04;;;;;;;25.10;19.25;;;7.80;99.90;;;;;;5338766;26;20023;-74
2024/04/10 02:27:31;;;;;;;27.42;19.35;;;7.90;99.90;;;;;;5336349;26;20000;-73
2024/04/10 02:29:58;;;;;;;20.67;18.73;;;7.80;99.90;;;;;;5338177;26;20004;-73
2024/04/10 02:32:26;;;;;;;23.90;19.08;;;7.80;99.90;;;;;;5344087;26;20015;-73
2024/04/10 02:34:54;;;;;;;26.60;18.35;;;7.70;99.90;;;;;;5338646;26;20012;-73
2024/04/10 02:37:21;;;;;;;27.88;19.13;;;7.70;99.90;;;;;;5343347;26;20016;-74
2024/04/10 02:39:48;;;;;;;23.42;19.05;;;7.60;99.90;;;;;;5338184;26;19996;-72
2024/04/10 02:42:16;;;;;;;19.88;17.88;;;7.70;99.90;;;;;;5336432;26;20012;-73
2024/04/10 02:44:51;;;;;;;20.13;18.02;;;7.70;99.90;;;;;;5338580;26;20008;-73
2024/04/10 02:47:21;;;;;;;22.88;18.65;;;7.60;99.90;;;;;;5343387;26;20008;-74
2024/04/10 02:49:49;;;;;;;26.83;18.80;;;7.60;99.90;;;;;;5362677;26;20008;-73
2024/04/10 02:52:18;;;;;;;21.95;17.98;;;7.60;99.90;;;;;;5344528;26;20066;-73
2024/04/10 02:54:45;;;;;;;20.35;18.23;;;7.60;99.90;;;;;;5342690;26;20036;-73
2024/04/10 02:57:12;;;;;;;29.80;19.33;;;7.50;99.90;;;;;;5315907;26;20015;-73
2024/04/10 02:59:43;;;;;;;21.30;18.45;;;7.60;99.90;;;;;;5338243;26;20016;-74
2024/04/10 03:02:10;;;;;;;26.17;18.77;;;7.60;99.90;;;;;;5310887;26;20268;-74
2024/04/10 03:04:37;;;;;;;19.92;18.00;;;7.70;99.90;;;;;;5347893;26;20000;-72
2024/04/10 03:07:04;;;;;;;21.85;18.40;;;7.70;99.90;;;;;;5347178;26;20003;-73
2024/04/10 03:09:31;;;;;;;28.05;19.67;;;7.80;99.90;;;;;;5352669;26;20576;-73
2024/04/10 03:11:58;;;;;;;24.52;18.30;;;7.80;99.90;;;;;;5342778;26;20012;-73
2024/04/10 03:14:26;;;;;;;20.77;18.27;;;7.70;99.90;;;;;;5330990;26;20004;-72
2024/04/10 03:16:54;;;;;;;23.38;18.52;;;7.80;99.90;;;;;;5333542;26;20012;-72
2024/04/10 03:19:21;;;;;;;22.42;18.27;;;7.80;99.90;;;;;;5365824;26;20004;-73
2024/04/10 03:21:48;;;;;;;20.75;18.00;;;7.80;99.90;;;;;;5314082;26;20037;-73
2024/04/10 03:24:17;;;;;;;27.02;19.15;;;7.70;99.90;;;;;;5344485;26;20004;-71
2024/04/10 03:26:44;;;;;;;23.80;17.92;;;7.70;99.90;;;;;;5302706;26;19996;-74
2024/04/10 03:29:11;;;;;;;22.70;18.00;;;7.70;99.90;;;;;;5308818;26;20584;-74
2024/04/10 03:31:38;;;;;;;26.75;18.33;;;7.70;99.90;;;;;;5321515;26;20017;-74
2024/04/10 03:34:21;;;;;;;32.10;18.50;;;7.80;99.90;;;;;;5314861;26;20004;-74
2024/04/10 03:37:26;;;;;;;23.45;18.67;;;7.80;99.90;;;;;;5351787;26;20020;-73
2024/04/10 03:40:21;;;;;;;28.10;18.10;;;7.90;99.90;;;;;;5338408;26;20007;-75
2024/04/10 03:43:25;;;;;;;31.73;19.05;;;7.90;99.90;;;;;;5323638;26;20270;-74
2024/04/10 03:45:53;;;;;;;31.80;18.98;;;7.90;99.90;;;;;;5314871;26;20512;-74
2024/04/10 03:48:21;;;;;;;26.17;19.20;;;7.80;99.90;;;;;;5314819;26;19997;-72
2024/04/10 03:50:48;;;;;;;29.23;19.38;;;7.80;99.90;;;;;;5320174;26;20004;-72
2024/04/10 03:53:16;;;;;;;29.42;18.38;;;7.80;99.90;;;;;;5308374;26;20021;-72
2024/04/10 03:55:43;;;;;;;29.67;19.73;;;7.80;99.90;;;;;;5309281;26;20202;-73
2024/04/10 03:58:10;;;;;;;21.17;18.20;;;7.80;99.90;;;;;;5303734;26;20129;-72
2024/04/10 04:00:37;;;;;;;27.10;18.35;;;7.80;99.90;;;;;;5318089;26;20011;-74
2024/04/10 04:03:04;;;;;;;30.13;19.25;;;7.80;99.90;;;;;;5311255;26;20022;-72
2024/04/10 04:05:31;;;;;;;30.50;19.98;;;7.70;99.90;;;;;;5312557;26;20001;-75
2024/04/10 04:07:59;;;;;;;27.45;19.13;;;7.70;99.90;;;;;;5315079;26;20076;-74
2024/04/10 04:10:27;;;;;;;29.95;18.98;;;7.80;99.90;;;;;;5334445;26;20027;-73
2024/04/10 04:12:54;;;;;;;27.88;18.98;;;7.80;99.90;;;;;;5318720;26;20001;-71
2024/04/10 04:15:21;;;;;;;32.65;19.05;;;7.70;99.90;;;;;;5315534;26;20027;-73
2024/04/10 04:17:48;;;;;;;22.70;18.83;;;7.80;99.90;;;;;;5315327;26;20024;-75
2024/04/10 04:20:16;;;;;;;26.85;18.58;;;7.70;99.90;;;;;;5300383;26;20827;-75
2024/04/10 04:22:43;;;;;;;32.25;18.85;;;7.70;99.90;;;;;;5302185;26;20184;-72
2024/04/10 04:25:10;;;;;;;29.50;18.50;;;7.70;99.90;;;;;;5303884;26;20043;-75
2024/04/10 04:27:37;;;;;;;23.45;19.02;;;7.70;99.90;;;;;;5310493;26;20009;-74
2024/04/10 04:30:05;;;;;;;28.00;19.00;;;7.70;99.90;;;;;;5315544;26;20018;-73
2024/04/10 04:32:32;;;;;;;35.55;19.13;;;7.70;99.90;;;;;;5316867;26;20865;-72
2024/04/10 04:35:02;;;;;;;25.30;19.92;;;7.70;99.90;;;;;;5309769;26;20472;-72
2024/04/10 04:37:29;;;;;;;25.55;19.48;;;7.70;99.90;;;;;;5285773;26;20460;-72
2024/04/10 04:39:56;;;;;;;31.27;19.80;;;7.70;99.90;;;;;;5325540;26;19997;-73
2024/04/10 04:42:23;;;;;;;21.90;19.08;;;7.70;99.90;;;;;;5315373;26;21452;-72
2024/04/10 04:44:53;;;;;;;23.38;19.45;;;7.70;99.90;;;;;;5316799;26;20013;-73
2024/04/10 04:47:20;;;;;;;25.05;18.58;;;7.70;99.90;;;;;;5289760;26;20012;-74
2024/04/10 04:49:47;;;;;;;24.83;22.25;;;7.70;99.90;;;;;;5320668;26;20001;-73
2024/04/10 04:52:14;;;;;;;32.28;19.73;;;7.70;99.90;;;;;;5307082;26;20022;-73
2024/04/10 04:54:42;;;;;;;23.95;18.92;;;7.60;99.90;;;;;;5296565;26;20018;-74
2024/04/10 04:57:12;;;;;;;24.00;19.73;;;7.60;99.90;;;;;;5267411;26;20029;-72
2024/04/10 04:59:39;;;;;;;28.42;19.90;;;7.70;99.90;;;;;;5341866;26;20020;-75
2024/04/10 05:02:09;;;;;;;31.67;19.10;;;7.70;99.90;;;;;;5306940;26;20644;-73
2024/04/10 05:04:55;;;;;;;32.30;20.33;;;7.70;99.90;;;;;;5301400;26;20028;-73
2024/04/10 05:07:23;;;;;;;33.15;20.23;;;7.70;99.90;;;;;;5309675;26;20358;-73
2024/04/10 05:09:50;;;;;;;26.15;19.27;;;7.70;99.90;;;;;;5315897;26;20012;-74
2024/04/10 05:12:19;;;;;;;27.70;18.83;;;7.60;99.90;;;;;;5304338;26;21076;-75
2024/04/10 05:14:52;;;;;;;27.00;18.90;;;7.70;99.90;;;;;;5315605;26;20475;-75
2024/04/10 05:17:20;;;;;;;25.60;18.92;;;7.60;99.90;;;;;;5316792;26;20068;-74
2024/04/10 05:19:48;;;;;;;27.67;19.80;;;7.70;99.90;;;;;;5321326;26;20140;-74
2024/04/10 05:22:15;;;;;;;25.23;19.67;;;7.70;99.90;;;;;;5285750;26;20550;-74
2024/04/10 05:24:42;;;;;;;35.20;19.58;;;7.70;99.90;;;;;;5312348;26;22001;-74
2024/04/10 05:27:21;;;;;;;29.35;21.75;;;7.60;99.90;;;;;;5306602;26;20049;-73
2024/04/10 05:30:03;;;;;;;29.23;20.42;;;7.70;99.90;;;;;;5278617;26;20001;-74
2024/04/10 05:32:30;;;;;;;32.28;21.38;;;7.70;99.90;;;;;;5362979;26;20720;-73
2024/04/10 05:35:01;;;;;;;35.92;21.15;;;7.70;99.90;;;;;;5311005;26;20088;-75
2024/04/10 05:37:31;;;;;;;25.63;21.85;;;7.70;99.90;;;;;;5295005;26;20051;-73
2024/04/10 05:40:18;;;;;;;35.85;24.48;;;7.80;99.90;;;;;;5306709;26;20112;-74
2024/04/10 05:42:46;;;;;;;27.88;21.92;;;7.70;99.90;;;;;;5299390;26;20034;-74
2024/04/10 05:45:14;;;;;;;27.58;21.23;;;7.70;99.90;;;;;;5301871;26;20041;-74
2024/04/10 05:47:47;;;;;;;25.30;20.02;;;7.80;99.90;;;;;;5344564;26;20014;-74
2024/04/10 05:50:15;;;;;;;32.58;22.48;;;7.80;99.90;;;;;;5317192;26;20008;-74
2024/04/10 05:52:43;;;;;;;29.85;21.67;;;7.80;99.90;;;;;;5345172;26;20019;-74
2024/04/10 05:55:11;;;;;;;30.60;23.33;;;7.80;99.90;;;;;;5349552;26;20019;-72
2024/04/10 05:57:38;;;;;;;31.17;20.83;;;7.70;99.90;;;;;;5358809;26;19997;-74
2024/04/10 06:00:07;;;;;;;28.83;22.98;;;7.80;99.90;;;;;;5369569;26;19996;-71
2024/04/10 06:02:40;;;;;;;37.13;23.67;;;7.80;99.90;;;;;;5325453;26;20005;-75
2024/04/10 06:05:08;;;;;;;35.85;22.90;;;7.80;99.90;;;;;;5305387;26;20005;-74
2024/04/10 06:07:36;;;;;;;26.98;23.00;;;7.90;99.90;;;;;;5310955;26;20012;-74
2024/04/10 06:10:07;;;;;;;35.35;23.27;;;8.00;99.90;;;;;;5339833;26;20023;-74
2024/04/10 06:12:34;;;;;;;32.83;23.70;;;8.00;99.90;;;;;;5327928;26;20462;-74
2024/04/10 06:15:02;;;;;;;31.00;23.05;;;8.20;99.90;;;;;;5337883;26;20022;-73
2024/04/10 06:17:29;;;;;;;32.80;25.20;;;8.20;99.90;;;;;;5344280;26;21060;-73
2024/04/10 06:19:57;;;;;;;29.88;24.63;;;8.10;99.90;;;;;;5343921;26;20000;-74
2024/04/10 06:22:24;;;;;;;29.25;23.30;;;8.10;99.90;;;;;;5330827;26;20036;-74
2024/04/10 06:24:51;;;;;;;36.15;25.45;;;8.10;99.90;;;;;;5317827;26;20026;-74
2024/04/10 06:27:19;;;;;;;36.88;24.20;;;8.10;99.90;;;;;;5332695;26;20004;-73
2024/04/10 06:29:47;;;;;;;34.88;23.50;;;8.10;99.90;;;;;;5356815;26;20012;-73
2024/04/10 06:32:16;;;;;;;31.13;23.45;;;8.10;99.90;;;;;;5341207;26;20019;-73
2024/04/10 06:34:43;;;;;;;34.45;24.55;;;8.10;99.90;;;;;;5355409;26;20075;-72
2024/04/10 06:37:11;;;;;;;37.55;23.63;;;8.10;99.90;;;;;;5342490;26;20012;-76
2024/04/10 06:39:38;;;;;;;35.33;22.30;;;8.20;99.90;;;;;;5367280;26;20019;-73
2024/04/10 06:42:05;;;;;;;31.38;24.35;;;8.10;99.90;;;;;;5335141;26;20127;-74
2024/04/10 06:44:32;;;;;;;30.70;23.67;;;8.10;99.90;;;;;;5337191;26;20060;-73
2024/04/10 06:47:00;;;;;;;30.05;23.15;;;8.20;99.90;;;;;;5347737;26;20019;-74
2024/04/10 06:49:28;;;;;;;27.63;23.33;;;8.20;99.90;;;;;;5310886;26;20060;-71
2024/04/10 06:51:57;;;;;;;40.97;25.40;;;8.20;99.90;;;;;;5356173;26;20040;-73
2024/04/10 06:54:25;;;;;;;29.83;26.05;;;8.20;99.90;;;;;;5340278;26;20008;-74
2024/04/10 06:56:52;;;;;;;34.70;26.80;;;8.30;99.90;;;;;;5344449;26;20535;-74
2024/04/10 06:59:19;;;;;;;30.63;27.38;;;8.30;99.90;;;;;;5330210;26;20004;-73
2024/04/10 07:01:47;;;;;;;43.63;27.02;;;8.40;99.90;;;;;;5359434;26;20013;-74
2024/04/10 07:04:14;;;;;;;33.03;25.27;;;8.40;99.90;;;;;;5323790;26;20005;-77
2024/04/10 07:06:41;;;;;;;31.45;25.60;;;8.50;99.90;;;;;;5360179;26;20077;-73
2024/04/10 07:09:09;;;;;;;34.65;25.67;;;8.50;99.90;;;;;;5306304;26;20082;-74
2024/04/10 07:11:37;;;;;;;32.38;26.67;;;8.40;99.90;;;;;;5339700;26;20000;-74
2024/04/10 07:14:05;;;;;;;30.15;26.60;;;8.40;99.90;;;;;;5338996;26;20056;-75
2024/04/10 07:16:32;;;;;;;36.13;27.30;;;8.40;99.90;;;;;;5342201;26;20030;-73
2024/04/10 07:18:59;;;;;;;33.40;27.15;;;8.30;99.90;;;;;;5338788;26;20011;-74
2024/04/10 07:21:27;;;;;;;30.63;26.08;;;8.30;99.90;;;;;;5334549;26;20056;-74
2024/04/10 07:23:54;;;;;;;40.65;25.58;;;8.50;99.90;;;;;;5335689;26;20539;-74
2024/04/10 07:26:27;;;;;;;36.38;24.13;;;8.60;99.90;;;;;;5314873;26;20008;-75
2024/04/10 07:28:56;;;;;;;24.50;20.75;;;8.60;99.90;;;;;;5339665;26;20025;-75
2024/04/10 07:31:36;;;;;;;38.08;22.55;;;8.50;99.90;;;;;;5306721;26;20005;-75
2024/04/10 07:34:04;;;;;;;29.30;20.42;;;8.30;99.90;;;;;;5337928;26;19997;-74
2024/04/10 07:36:33;;;;;;;31.02;20.27;;;8.10;99.90;;;;;;5306649;26;20001;-74
2024/04/10 07:39:06;;;;;;;36.53;22.23;;;8.00;99.90;;;;;;5311291;26;20004;-74
2024/04/10 07:41:36;;;;;;;44.40;22.13;;;8.00;99.90;;;;;;5320017;26;20008;-74
2024/04/10 07:44:07;;;;;;;41.25;23.95;;;7.90;99.90;;;;;;5310742;26;20005;-74
2024/04/10 07:46:35;;;;;;;36.67;21.58;;;7.90;99.90;;;;;;5295094;26;20000;-75
2024/04/10 07:49:02;;;;;;;39.92;22.40;;;7.90;99.90;;;;;;5304303;26;20002;-74
2024/04/10 07:51:30;;;;;;;47.45;24.40;;;7.90;99.90;;;;;;5358539;26;20015;-75
2024/04/10 07:53:57;;;;;;;40.72;24.02;;;7.80;99.90;;;;;;5316521;26;20013;-75
2024/04/10 07:56:26;;;;;;;30.55;19.77;;;7.90;99.90;;;;;;5332897;26;20004;-77
2024/04/10 07:58:55;;;;;;;28.95;19.95;;;7.90;99.90;;;;;;5310661;26;20005;-80
2024/04/10 08:01:25;;;;;;;33.67;21.63;;;7.90;99.90;;;;;;5326737;26;20016;-80
2024/04/10 08:03:52;;;;;;;36.95;21.52;;;7.90;99.90;;;;;;5357583;26;20561;-80
2024/04/10 08:06:19;;;;;;;34.20;19.23;;;7.80;99.90;;;;;;5308198;26;20013;-77
2024/04/10 08:08:46;;;;;;;37.05;21.35;;;7.70;99.90;;;;;;5312294;26;20231;-77
2024/04/10 08:11:17;;;;;;;29.67;20.75;;;7.70;99.90;;;;;;5319768;26;20107;-77
2024/04/10 08:13:46;;;;;;;34.90;21.35;;;7.80;99.90;;;;;;5317141;26;20453;-81
2024/04/10 08:16:15;;;;;;;38.03;21.85;;;7.80;99.90;;;;;;5315090;26;20670;-80
2024/04/10 08:18:45;;;;;;;43.13;24.55;;;7.80;99.90;;;;;;5314988;26;20021;-78
2024/04/10 08:21:14;;;;;;;57.10;32.58;;;7.80;99.90;;;;;;5268533;26;20696;-78
2024/04/10 08:23:43;;;;;;;48.72;28.60;;;7.70;99.90;;;;;;5314578;26;20012;-78
2024/04/10 08:26:24;;;;;;;63.05;34.10;;;7.80;99.90;;;;;;5319721;26;20015;-78
2024/04/10 08:28:54;;;;;;;47.33;28.35;;;7.80;99.90;;;;;;5353834;26;20009;-80
2024/04/10 08:31:27;;;;;;;43.22;24.73;;;8.00;99.90;;;;;;5326757;26;20004;-79
2024/04/10 08:33:55;;;;;;;39.40;25.50;;;8.00;99.90;;;;;;5327926;26;20010;-79
2024/04/10 08:36:24;;;;;;;47.75;25.75;;;7.90;99.90;;;;;;5327285;26;20008;-79
2024/04/10 08:39:01;;;;;;;42.42;27.15;;;8.00;99.90;;;;;;5326653;26;20029;-81
2024/04/10 08:41:29;;;;;;;44.25;25.23;;;8.20;99.90;;;;;;5282097;26;20008;-81
2024/04/10 08:43:57;;;;;;;34.75;23.27;;;8.10;99.90;;;;;;5299045;26;20013;-81
2024/04/10 08:46:28;;;;;;;46.08;26.60;;;8.10;99.90;;;;;;5332249;26;19997;-81
2024/04/10 08:48:59;;;;;;;35.80;23.35;;;8.30;99.90;;;;;;5313848;26;20437;-80
2024/04/10 08:51:30;;;;;;;43.55;25.83;;;8.40;99.90;;;;;;5324322;26;20001;-76
2024/04/10 08:53:58;;;;;;;29.88;20.33;;;8.40;99.90;;;;;;5325577;26;20005;-79
2024/04/10 08:56:27;;;;;;;35.95;21.52;;;8.40;99.90;;;;;;5309389;26;20097;-80
2024/04/10 08:58:55;;;;;;;26.70;19.35;;;8.40;99.90;;;;;;5317683;26;21141;-84
2024/04/10 09:01:30;;;;;;;24.45;19.35;;;8.50;99.90;;;;;;5279918;26;20006;-80
2024/04/10 09:04:09;;;;;;;36.22;21.77;;;8.60;99.90;;;;;;5307903;26;20081;-79
2024/04/10 09:06:37;;;;;;;32.30;21.83;;;8.70;99.90;;;;;;5320048;26;20012;-79
2024/04/10 09:09:07;;;;;;;29.35;20.20;;;8.70;99.90;;;;;;5285527;26;20006;-79
2024/04/10 09:11:37;;;;;;;35.70;21.40;;;8.80;99.90;;;;;;5291250;26;20000;-79
2024/04/10 09:14:09;;;;;;;29.77;20.23;;;8.80;99.90;;;;;;5301810;26;20005;-78
2024/04/10 09:16:37;;;;;;;32.45;22.45;;;8.80;99.90;;;;;;5318032;26;20079;-81
2024/04/10 09:19:18;;;;;;;32.10;21.85;;;8.70;99.90;;;;;;5286532;26;20065;-79
2024/04/10 09:21:55;;;;;;;33.35;23.65;;;8.90;99.90;;;;;;5317772;26;19998;-77
2024/04/10 09:24:25;;;;;;;28.00;23.90;;;8.80;99.90;;;;;;5352315;26;20012;-77
2024/04/10 09:26:52;;;;;;;35.58;24.52;;;8.60;99.90;;;;;;5302579;26;20024;-75
2024/04/10 09:29:24;;;;;;;30.85;23.15;;;8.80;99.90;;;;;;5296744;26;20016;-75
2024/04/10 09:31:54;;;;;;;42.58;24.30;;;8.90;99.90;;;;;;5330406;26;20017;-77
2024/04/10 09:34:22;;;;;;;29.52;22.42;;;8.80;99.90;;;;;;5340602;26;20025;-77
2024/04/10 09:36:50;;;;;;;39.78;23.75;;;8.70;99.90;;;;;;5289644;26;20004;-76
2024/04/10 09:39:22;;;;;;;42.47;23.92;;;8.60;99.90;;;;;;5305416;26;20013;-77
2024/04/10 09:42:00;;;;;;;43.50;23.55;;;8.70;99.90;;;;;;5313394;26;20048;-75
2024/04/10 09:44:30;;;;;;;33.60;24.15;;;8.50;99.90;;;;;;5318209;26;20008;-76
2024/04/10 09:46:59;;;;;;;42.33;22.85;;;8.60;99.90;;;;;;5328016;26;20099;-77
2024/04/10 09:49:51;;;;;;;35.63;22.85;;;8.70;99.90;;;;;;5309427;26;20014;-76
2024/04/10 09:52:19;;;;;;;39.28;22.73;;;8.70;99.90;;;;;;5316469;26;20312;-77
2024/04/10 09:54:48;;;;;;;25.02;19.98;;;8.80;99.90;;;;;;5311806;26;20010;-76
2024/04/10 09:57:17;;;;;;;32.50;23.17;;;8.80;99.90;;;;;;5345468;26;20045;-76
2024/04/10 09:59:44;;;;;;;31.67;22.35;;;8.90;99.90;;;;;;5324474;26;20038;-76
2024/04/10 10:02:16;;;;;;;29.90;22.48;;;8.90;99.90;;;;;;5303762;26;20024;-74
2024/04/10 10:04:45;;;;;;;32.28;23.27;;;8.90;99.90;;;;;;5318047;26;20001;-76
2024/04/10 10:07:24;;;;;;;25.33;22.73;;;9.10;99.90;;;;;;5300729;26;20006;-74
2024/04/10 10:10:03;;;;;;;23.77;21.13;;;9.60;99.90;;;;;;5278491;26;20007;-76
2024/04/10 10:12:30;;;;;;;29.63;25.58;;;10.10;99.90;;;;;;5276500;26;20756;-74
2024/04/10 10:15:11;;;;;;;28.27;25.45;;;10.30;99.90;;;;;;5280051;26;20047;-75
2024/04/10 10:17:40;;;;;;;28.58;26.02;;;10.30;99.90;;;;;;5315839;26;20124;-75
2024/04/10 10:20:25;;;;;;;27.77;25.08;;;10.10;99.90;;;;;;5312457;26;22340;-75
2024/04/10 10:23:00;;;;;;;28.20;25.00;;;10.10;99.90;;;;;;5327388;26;20001;-74
2024/04/10 10:25:28;;;;;;;28.60;25.65;;;10.40;99.90;;;;;;5329922;26;20122;-75
2024/04/10 10:28:07;;;;;;;29.17;26.52;;;10.60;99.90;;;;;;5314656;26;20013;-75
2024/04/10 10:30:34;;;;;;;29.48;26.95;;;10.60;99.90;;;;;;5305393;26;20414;-75
2024/04/10 10:36:10;;;;;;;32.17;29.25;;;10.30;99.90;;;;;;5476799;25;20411;-76
2024/04/10 10:38:41;;;;;;;32.65;29.63;;;10.20;99.90;;;;;;5452550;26;20015;-75
2024/04/10 10:41:11;;;;;;;33.50;30.17;;;10.10;99.90;;;;;;5447883;25;20018;-75
2024/04/10 10:43:45;;;;;;;34.13;30.98;;;10.00;99.90;;;;;;5376603;26;20007;-74
2024/04/10 10:46:14;;;;;;;34.63;31.60;;;10.00;99.90;;;;;;5362346;26;20061;-74
2024/04/10 10:48:42;;;;;;;33.92;30.73;;;10.10;99.90;;;;;;5377084;26;20000;-72
2024/04/10 10:51:10;;;;;;;35.40;31.63;;;10.00;99.90;;;;;;5368012;26;20012;-73
2024/04/10 10:53:38;;;;;;;35.58;32.10;;;10.10;99.90;;;;;;5334830;26;20012;-74
2024/04/10 10:56:05;;;;;;;35.33;31.58;;;10.00;99.90;;;;;;5363351;26;20019;-75
2024/04/10 10:58:32;;;;;;;38.22;32.30;;;10.00;99.90;;;;;;5369677;26;20001;-74
2024/04/10 11:01:05;;;;;;;34.97;31.92;;;10.10;99.90;;;;;;5360016;26;20027;-73
2024/04/10 11:03:32;;;;;;;35.22;31.77;;;10.30;99.90;;;;;;5359009;26;20032;-75
2024/04/10 11:06:10;;;;;;;36.45;32.97;;;10.40;99.90;;;;;;5359901;26;20000;-74
2024/04/10 11:08:39;;;;;;;35.83;31.70;;;10.50;99.90;;;;;;5370806;26;20190;-75
2024/04/10 11:11:06;;;;;;;38.33;32.50;;;10.60;99.90;;;;;;5358963;26;20011;-74
2024/04/10 11:13:49;;;;;;;35.80;32.40;;;10.70;99.90;;;;;;5351949;26;20979;-74
2024/04/10 11:16:27;;;;;;;37.42;33.60;;;10.80;99.90;;;;;;5330943;26;20004;-75
2024/04/10 11:18:55;;;;;;;37.03;33.35;;;11.00;99.90;;;;;;5364950;26;20495;-75
2024/04/10 11:21:22;;;;;;;38.95;35.13;;;11.10;99.90;;;;;;5369986;26;19999;-75
2024/04/10 11:23:49;;;;;;;42.45;39.00;;;11.10;99.90;;;;;;5394230;26;20000;-74
2024/04/10 11:26:16;;;;;;;42.58;39.13;;;11.30;99.90;;;;;;5365908;26;20470;-74
2024/04/10 11:28:46;;;;;;;45.03;40.92;;;11.20;99.90;;;;;;5360354;26;20007;-73
2024/04/10 11:31:13;;;;;;;44.67;40.70;;;11.30;99.90;;;;;;5376837;26;20000;-75
2024/04/10 11:33:40;;;;;;;45.47;41.72;;;11.40;99.90;;;;;;5366122;26;20023;-74
2024/04/10 11:36:08;;;;;;;43.92;39.35;;;11.50;99.90;;;;;;5360260;26;20463;-76
2024/04/10 11:38:38;;;;;;;42.38;38.90;;;11.60;99.90;;;;;;5341744;26;19996;-74
2024/04/10 11:41:07;;;;;;;42.88;38.92;;;11.40;99.90;;;;;;5357876;26;20086;-76
2024/04/10 11:43:36;;;;;;;41.35;37.80;;;11.30;99.90;;;;;;5360221;26;20129;-74
2024/04/10 11:46:03;;;;;;;42.90;38.92;;;11.40;99.90;;;;;;5359086;26;20018;-74
2024/04/10 11:48:31;;;;;;;43.70;39.78;;;11.20;99.90;;;;;;5353110;26;20455;-73
2024/04/10 11:50:59;;;;;;;43.45;39.33;;;11.40;99.90;;;;;;5377838;26;20052;-75
2024/04/10 11:53:28;;;;;;;45.25;41.83;;;11.60;99.90;;;;;;5354186;26;20435;-75
2024/04/10 11:55:58;;;;;;;44.17;40.67;;;11.60;99.90;;;;;;5391292;26;20004;-76
2024/04/10 11:58:25;;;;;;;43.60;40.05;;;11.50;99.90;;;;;;5343052;26;20605;-75
2024/04/10 12:00:52;;;;;;;45.60;41.85;;;11.80;99.90;;;;;;5364800;26;20019;-73
2024/04/10 12:03:21;;;;;;;43.60;40.00;;;12.10;99.90;;;;;;5376978;26;19999;-72
2024/04/10 12:05:50;;;;;;;42.80;39.20;;;12.30;99.90;;;;;;5336492;26;20686;-74
2024/04/10 12:08:19;;;;;;;45.60;41.42;;;12.30;99.90;;;;;;5327238;26;19999;-76
2024/04/10 12:10:46;;;;;;;45.53;41.58;;;12.30;99.90;;;;;;5350845;26;20078;-75
2024/04/10 12:13:14;;;;;;;45.03;41.03;;;12.10;99.90;;;;;;5351438;26;20052;-75
2024/04/10 12:15:41;;;;;;;44.65;40.88;;;11.90;99.90;;;;;;5357878;26;20005;-75
2024/04/10 12:18:08;;;;;;;43.42;39.95;;;11.80;99.90;;;;;;5352396;26;20016;-74
2024/04/10 12:20:36;;;;;;;42.45;38.72;;;11.80;99.90;;;;;;5359280;26;19996;-75
2024/04/10 12:23:03;;;;;;;42.28;38.95;;;11.90;99.90;;;;;;5384206;26;20003;-74
2024/04/10 12:25:31;;;;;;;42.45;38.40;;;12.00;99.90;;;;;;5387109;26;20100;-71
2024/04/10 12:27:58;;;;;;;42.55;38.90;;;12.10;99.90;;;;;;5383786;26;20036;-74
2024/04/10 12:30:25;;;;;;;44.63;40.38;;;12.20;99.90;;;;;;5368304;26;20683;-72
2024/04/10 12:32:52;;;;;;;41.42;38.15;;;12.10;99.90;;;;;;5348362;26;20120;-76
2024/04/10 12:38:09;;;;;;;43.13;39.35;;;12.30;99.90;;;;;;5335538;26;20012;-75
2024/04/10 12:40:39;;;;;;;41.40;38.03;;;12.20;99.90;;;;;;5396169;26;20001;-72
2024/04/10 12:43:08;;;;;;;41.25;38.15;;;12.30;99.90;;;;;;5346269;26;20019;-73
2024/04/10 12:45:35;;;;;;;37.53;34.63;;;12.10;99.90;;;;;;5352761;26;20004;-73
2024/04/10 12:48:04;;;;;;;38.30;35.22;;;12.10;99.90;;;;;;5371590;26;20043;-74
2024/04/10 12:50:32;;;;;;;37.88;34.67;;;12.20;99.90;;;;;;5351135;26;20064;-73
2024/04/10 12:52:59;;;;;;;37.42;34.33;;;12.20;99.90;;;;;;5348500;26;20543;-72